Goodyear, AZ

11:38 AM MST on March 06, 2015 (GMT -0700)
I-10 & Estrella Pkwy. | Change Station
CLOSE
Current Station
Personal Weather Station
Location: Goodyear, AZ
Elevation: 1004 ft
Nearby Weather Stations

Elev 1004 ft 33.46 °N, 112.40 °W | Updated 12 minutes ago

Clear
Clear
72.5 °F
Feels Like 71 °F
N
0.0
Wind Variable Wind from NNE
Gusts 4.0 mph

Today
High -- | Low -- °F
--% Chance of Precip.
Yesterday
High -- | Low -- °F
Precip. -- in
6:51 AM 6:30 PM
Full, 99% visible
Pressure 30.17 in
Visibility 10.0 miles
Clouds Clear
Heat Index 71 °F
Dew Point Not available.
Humidity Not available.
Rainfall in
Snow Depth Not available.
UV 6 out of 12
Pollen 10.00 out of 12
Air Quality Not available.
Flu Activity Not available.
METAR KGYR 061747Z 03007KT 10SM SKC 21/M05 A3017

More Conditions Fewer Conditions

Pressure 30.17 in
Visibility 10.0 miles
Clouds Clear
Heat Index 71 °F
Dew Point Not available.
Humidity Not available.
Rainfall in
Snow Depth Not available.
UV 6 out of 12
Pollen 10.00 out of 12
Air Quality Not available.
Flu Activity Not available.
METAR KGYR 061747Z 03007KT 10SM SKC 21/M05 A3017

More Conditions Fewer Conditions

10-Day Weather Forecast

Almanac

Astronomy

Mar. 06, 2015 Rise Set
Actual Time
Civil Twilight
Nautical Twilight
Astronomical Twilight
Moon
Length of Visible Light
Length of Day
Tomorrow will be .
, % of the Moon is Illuminated

Today's Extremes

State Highs State Lows

Community

WunderPhotos

Upload Photos

1,803,367 photos uploaded!

WunderBlogs® & News

Nearby

Air Quality

  Air Quality AQ Index Pollutant
Not available.

Snow Depth

Station Depth Elevation

Earthquake Activity

City Distance Mag. Time & Date
Minimum magnitude displayed is 2.5.

Coastal Water Temperatures

Place Temperature

Nearby Weather Stations